createdAt,value
2017-12-23T00:00:18.510Z,17.20
2017-12-23T00:03:24.294Z,17.37
2017-12-23T00:06:30.172Z,17.63
2017-12-23T00:09:35.441Z,18.17
2017-12-23T00:12:41.218Z,20.60
2017-12-23T00:15:46.134Z,20.57
2017-12-23T00:18:52.290Z,19.50
2017-12-23T00:21:57.691Z,19.53
2017-12-23T00:25:03.225Z,19.50
2017-12-23T00:28:08.634Z,18.97
2017-12-23T00:31:13.422Z,18.27
2017-12-23T00:34:19.051Z,18.57
2017-12-23T00:37:24.722Z,19.03
2017-12-23T00:40:29.959Z,17.00
2017-12-23T00:43:36.466Z,18.00
2017-12-23T00:46:41.637Z,16.03
2017-12-23T00:49:46.479Z,16.80
2017-12-23T00:52:51.537Z,16.90
2017-12-23T00:55:57.865Z,15.90
2017-12-23T00:59:02.913Z,17.23
2017-12-23T01:02:08.407Z,17.90
2017-12-23T01:05:13.350Z,18.10
2017-12-23T01:08:18.683Z,17.00
2017-12-23T01:11:24.180Z,16.40
2017-12-23T01:14:29.119Z,17.20
2017-12-23T01:17:34.911Z,16.87
2017-12-23T01:20:39.739Z,16.37
2017-12-23T01:23:45.320Z,15.97
2017-12-23T01:26:50.266Z,16.67
2017-12-23T01:29:56.058Z,16.60
2017-12-23T01:33:01.251Z,17.37
2017-12-23T01:36:07.602Z,17.70
2017-12-23T01:39:13.885Z,16.53
2017-12-23T01:42:18.834Z,17.37
2017-12-23T01:45:25.126Z,19.40
2017-12-23T01:48:36.449Z,18.83
2017-12-23T01:51:41.569Z,19.07
2017-12-23T01:54:47.217Z,18.87
2017-12-23T01:57:53.081Z,19.30
2017-12-23T02:00:58.869Z,18.93
2017-12-23T02:04:05.274Z,19.90
2017-12-23T02:07:10.554Z,19.50
2017-12-23T02:10:16.592Z,20.77
2017-12-23T02:13:22.054Z,21.10
2017-12-23T02:16:27.130Z,20.50
2017-12-23T02:19:32.829Z,21.07
2017-12-23T02:22:38.270Z,19.77
2017-12-23T02:25:43.821Z,21.07
2017-12-23T02:28:49.323Z,19.83
2017-12-23T02:31:54.611Z,19.90
2017-12-23T02:35:00.822Z,22.27
2017-12-23T02:38:06.085Z,19.87
2017-12-23T02:41:11.810Z,19.23
2017-12-23T02:44:17.006Z,18.90
2017-12-23T02:47:22.274Z,19.73
2017-12-23T02:50:27.860Z,19.73
2017-12-23T02:53:33.810Z,19.83
2017-12-23T02:56:39.715Z,19.90
2017-12-23T02:59:45.641Z,20.57
2017-12-23T03:02:51.397Z,20.23
2017-12-23T03:05:56.318Z,20.00
2017-12-23T03:09:01.715Z,20.87
2017-12-23T03:12:07.559Z,20.90
2017-12-23T03:15:13.807Z,19.23
2017-12-23T03:18:20.269Z,18.77
2017-12-23T03:21:26.474Z,18.67
2017-12-23T03:24:31.369Z,19.60
2017-12-23T03:27:37.126Z,18.90
2017-12-23T03:30:42.130Z,19.23
2017-12-23T03:33:47.089Z,19.60
2017-12-23T03:36:52.139Z,19.97
2017-12-23T03:39:57.618Z,17.70
2017-12-23T03:43:02.747Z,19.10
2017-12-23T03:46:08.234Z,18.97
2017-12-23T03:49:13.698Z,21.27
2017-12-23T03:52:19.311Z,19.13
2017-12-23T03:55:24.697Z,18.00
2017-12-23T03:58:30.372Z,19.07
2017-12-23T04:01:36.160Z,18.50
2017-12-23T04:04:41.113Z,18.33
2017-12-23T04:07:46.138Z,16.97
2017-12-23T04:10:51.531Z,18.70
2017-12-23T04:13:56.361Z,18.20
2017-12-23T04:17:01.386Z,18.30
2017-12-23T04:20:06.374Z,20.07
2017-12-23T04:23:11.922Z,18.13
2017-12-23T04:26:17.661Z,17.23
2017-12-23T04:29:23.342Z,18.80
2017-12-23T04:32:28.630Z,19.10
2017-12-23T04:35:33.806Z,17.37
2017-12-23T04:38:39.648Z,18.60
2017-12-23T04:41:44.824Z,17.97
2017-12-23T04:44:51.102Z,17.97
2017-12-23T04:47:56.353Z,17.97
2017-12-23T04:51:01.293Z,17.33
2017-12-23T04:54:07.233Z,16.90
2017-12-23T04:57:12.501Z,17.90
2017-12-23T05:00:18.586Z,17.20
2017-12-23T05:03:24.373Z,17.13
2017-12-23T05:06:30.493Z,17.10
2017-12-23T05:09:35.222Z,16.77
2017-12-23T05:12:40.875Z,18.13
2017-12-23T05:15:46.534Z,17.97
2017-12-23T05:18:51.989Z,16.47
2017-12-23T05:21:57.274Z,16.33
2017-12-23T05:25:02.913Z,17.53
2017-12-23T05:28:08.604Z,17.30
2017-12-23T05:31:14.210Z,18.07
2017-12-23T05:34:20.062Z,18.40
2017-12-23T05:37:25.199Z,17.53
2017-12-23T05:40:30.721Z,18.00
2017-12-23T05:43:37.120Z,18.10
2017-12-23T05:46:42.794Z,17.57
2017-12-23T05:49:47.873Z,18.10
2017-12-23T05:52:53.317Z,18.50
2017-12-23T05:55:58.798Z,16.10
2017-12-23T05:59:03.682Z,16.30
2017-12-23T06:02:09.158Z,15.87
2017-12-23T06:05:14.574Z,17.40
2017-12-23T06:08:20.506Z,16.10
2017-12-23T06:11:26.006Z,16.50
2017-12-23T06:14:31.030Z,16.87
2017-12-23T06:17:36.457Z,17.60
2017-12-23T06:20:41.735Z,15.97
2017-12-23T06:23:46.837Z,16.10
2017-12-23T06:26:52.538Z,16.17
2017-12-23T06:29:57.781Z,15.87
2017-12-23T06:33:03.003Z,14.43
2017-12-23T06:36:08.565Z,16.10
2017-12-23T06:39:14.150Z,16.03
2017-12-23T06:42:20.279Z,16.03
2017-12-23T06:45:25.550Z,15.23
2017-12-23T06:48:31.122Z,17.00
2017-12-23T06:51:38.607Z,14.80
2017-12-23T06:54:43.746Z,14.73
2017-12-23T06:57:48.934Z,15.13
2017-12-23T07:00:54.094Z,14.90
2017-12-23T07:03:59.246Z,14.80
2017-12-23T07:07:04.351Z,16.00
2017-12-23T07:10:09.333Z,16.57
2017-12-23T07:13:15.603Z,15.87
2017-12-23T07:16:20.906Z,14.57
2017-12-23T07:19:25.879Z,16.20
2017-12-23T07:22:31.110Z,16.00
2017-12-23T07:25:36.605Z,16.63
2017-12-23T07:28:42.365Z,15.50
2017-12-23T07:31:48.246Z,15.77
2017-12-23T07:34:53.280Z,14.97
2017-12-23T07:37:59.720Z,15.70
2017-12-23T07:41:06.046Z,16.80
2017-12-23T07:44:11.706Z,15.87
2017-12-23T07:47:16.571Z,18.53
2017-12-23T07:50:22.266Z,17.23
2017-12-23T07:53:28.892Z,17.20
2017-12-23T07:56:34.478Z,17.63
2017-12-23T07:59:40.221Z,16.63
2017-12-23T08:02:45.209Z,16.00
2017-12-23T08:05:50.388Z,17.00
2017-12-23T08:08:55.547Z,18.10
2017-12-23T08:12:01.405Z,16.83
2017-12-23T08:15:06.313Z,15.87
2017-12-23T08:18:11.966Z,15.87
2017-12-23T08:21:16.958Z,16.87
2017-12-23T08:24:22.845Z,16.07
2017-12-23T08:27:29.234Z,17.03
2017-12-23T08:30:34.691Z,15.33
2017-12-23T08:33:39.586Z,16.03
2017-12-23T08:36:44.613Z,14.97
2017-12-23T08:39:49.947Z,16.40
2017-12-23T08:42:55.729Z,16.73
2017-12-23T08:46:02.290Z,15.90
2017-12-23T08:49:08.664Z,13.40
2017-12-23T08:52:13.458Z,15.50
2017-12-23T08:55:19.281Z,15.70
2017-12-23T08:58:27.649Z,16.13
2017-12-23T09:01:32.692Z,15.70
2017-12-23T09:04:38.233Z,16.03
2017-12-23T09:07:43.467Z,16.50
2017-12-23T09:10:48.542Z,16.33
2017-12-23T09:13:55.062Z,16.37
2017-12-23T09:17:01.726Z,15.73
2017-12-23T09:20:07.563Z,14.30
2017-12-23T09:23:13.028Z,16.27
2017-12-23T09:26:18.070Z,16.33
2017-12-23T09:29:23.800Z,15.83
2017-12-23T09:32:29.057Z,14.70
2017-12-23T09:35:34.013Z,14.27
2017-12-23T09:38:39.798Z,14.30
2017-12-23T09:41:45.490Z,14.83
2017-12-23T09:44:50.866Z,14.50
2017-12-23T09:47:56.022Z,14.50
2017-12-23T09:51:01.546Z,14.40
2017-12-23T09:54:07.931Z,15.60
2017-12-23T09:57:13.738Z,15.00
2017-12-23T10:00:19.216Z,15.40
2017-12-23T10:03:23.968Z,15.33
2017-12-23T10:06:29.035Z,13.70
2017-12-23T10:09:36.427Z,14.70
2017-12-23T10:12:41.341Z,14.07
2017-12-23T10:15:46.402Z,14.10
2017-12-23T10:18:52.137Z,13.93
2017-12-23T10:21:57.751Z,13.43
2017-12-23T10:25:02.654Z,13.50
2017-12-23T10:28:07.534Z,12.03
2017-12-23T10:31:13.199Z,14.38
2017-12-23T10:34:18.495Z,13.20
2017-12-23T10:37:24.098Z,12.87
2017-12-23T10:40:28.917Z,12.20
2017-12-23T10:43:34.721Z,11.80
2017-12-23T10:46:39.880Z,12.00
2017-12-23T10:49:44.862Z,11.53
2017-12-23T10:52:50.012Z,11.00
2017-12-23T10:55:54.996Z,10.27
2017-12-23T10:59:00.581Z,11.20
2017-12-23T11:02:06.265Z,10.90
2017-12-23T11:05:11.831Z,10.80
2017-12-23T11:08:17.393Z,10.00
2017-12-23T11:11:23.697Z,10.40
2017-12-23T11:14:29.354Z,10.37
2017-12-23T11:17:34.733Z,9.93
2017-12-23T11:20:40.194Z,9.90
2017-12-23T11:23:45.649Z,10.00
2017-12-23T11:26:51.434Z,9.53
2017-12-23T11:29:57.015Z,10.20
2017-12-23T11:33:01.958Z,10.00
2017-12-23T11:36:08.199Z,9.60
2017-12-23T11:39:14.095Z,10.30
2017-12-23T11:42:20.058Z,9.50
2017-12-23T11:45:25.474Z,9.20
2017-12-23T11:48:30.901Z,9.50
2017-12-23T11:51:36.566Z,8.70
2017-12-23T11:54:41.711Z,7.67
2017-12-23T11:57:46.846Z,8.63
2017-12-23T12:00:52.386Z,8.07
2017-12-23T12:03:57.635Z,8.10
2017-12-23T12:07:03.127Z,8.30
2017-12-23T12:10:08.430Z,7.60
2017-12-23T12:13:13.575Z,6.63
2017-12-23T12:16:18.361Z,7.50
2017-12-23T12:19:23.726Z,5.33
2017-12-23T12:22:29.175Z,5.90
2017-12-23T12:25:34.486Z,7.77
2017-12-23T12:28:42.226Z,9.30
2017-12-23T12:31:47.514Z,9.53
2017-12-23T12:34:53.006Z,8.43
2017-12-23T12:37:58.325Z,9.57
2017-12-23T12:41:04.781Z,10.03
2017-12-23T12:44:09.530Z,9.07
2017-12-23T12:47:15.931Z,9.43
2017-12-23T12:50:21.651Z,9.60
2017-12-23T12:53:27.286Z,9.83
2017-12-23T12:56:32.809Z,9.40
2017-12-23T12:59:38.432Z,9.83
2017-12-23T13:02:43.951Z,10.27
2017-12-23T13:05:48.944Z,9.57
2017-12-23T13:08:54.450Z,9.37
2017-12-23T13:11:59.872Z,10.13
2017-12-23T13:15:04.566Z,8.90
2017-12-23T13:18:09.984Z,9.80
2017-12-23T13:21:15.076Z,9.90
2017-12-23T13:24:20.168Z,9.53
2017-12-23T13:27:25.668Z,7.80
2017-12-23T13:30:31.173Z,7.00
2017-12-23T13:33:36.661Z,8.57
2017-12-23T13:36:41.550Z,7.70
2017-12-23T13:39:46.844Z,8.13
2017-12-23T13:42:51.926Z,8.20
2017-12-23T13:45:57.486Z,7.07
2017-12-23T13:49:02.465Z,6.93
2017-12-23T13:52:08.770Z,6.90
2017-12-23T13:55:14.967Z,6.97
2017-12-23T13:58:25.946Z,7.90
2017-12-23T14:01:31.240Z,6.30
2017-12-23T14:04:37.026Z,6.43
2017-12-23T14:07:42.190Z,7.30
2017-12-23T14:10:47.971Z,7.17
2017-12-23T14:13:54.239Z,7.70
2017-12-23T14:17:02.645Z,8.10
2017-12-23T14:20:08.723Z,7.17
2017-12-23T14:23:13.931Z,7.67
2017-12-23T14:26:19.165Z,7.23
2017-12-23T14:29:24.135Z,5.53
2017-12-23T14:32:34.486Z,7.47
2017-12-23T14:35:39.238Z,7.27
2017-12-23T14:38:44.994Z,5.80
2017-12-23T14:41:50.080Z,6.83
2017-12-23T14:44:56.335Z,5.53
2017-12-23T14:48:02.058Z,6.40
2017-12-23T14:51:08.484Z,6.30
2017-12-23T14:54:17.123Z,6.60
2017-12-23T14:57:22.838Z,7.40
2017-12-23T15:00:28.153Z,7.47
2017-12-23T15:03:33.166Z,7.90
2017-12-23T15:06:39.006Z,7.00
2017-12-23T15:09:44.722Z,6.63
2017-12-23T15:12:53.098Z,9.27
2017-12-23T15:15:58.487Z,9.70
2017-12-23T15:19:03.478Z,6.50
2017-12-23T15:22:08.441Z,8.47
2017-12-23T15:25:13.882Z,9.37
2017-12-23T15:28:19.437Z,8.50
2017-12-23T15:31:24.492Z,8.13
2017-12-23T15:34:30.349Z,8.30
2017-12-23T15:37:35.463Z,6.33
2017-12-23T15:40:40.918Z,7.90
2017-12-23T15:43:46.570Z,8.50
2017-12-23T15:46:51.927Z,8.00
2017-12-23T15:49:57.890Z,7.50
2017-12-23T15:53:02.966Z,7.20
2017-12-23T15:56:09.231Z,7.10
2017-12-23T15:59:14.897Z,8.17
2017-12-23T16:02:21.034Z,6.93
2017-12-23T16:05:26.156Z,6.40
2017-12-23T16:08:31.427Z,6.43
2017-12-23T16:11:37.282Z,7.20
2017-12-23T16:14:43.146Z,5.90
2017-12-23T16:17:48.501Z,6.20
2017-12-23T16:20:53.874Z,6.97
2017-12-23T16:23:58.918Z,5.73
2017-12-23T16:27:04.522Z,6.80
2017-12-23T16:30:11.538Z,6.97
2017-12-23T16:33:17.773Z,7.37
2017-12-23T16:36:22.732Z,6.13
2017-12-23T16:39:27.899Z,7.80
2017-12-23T16:42:36.224Z,7.90
2017-12-23T16:45:59.676Z,7.70
2017-12-23T16:49:05.212Z,7.20
2017-12-23T16:52:09.906Z,6.43
2017-12-23T16:55:16.160Z,7.60
2017-12-23T16:58:22.137Z,6.60
2017-12-23T17:01:27.656Z,7.83
2017-12-23T17:04:33.674Z,7.30
2017-12-23T17:07:38.912Z,7.47
2017-12-23T17:10:44.088Z,7.73
2017-12-23T17:13:49.073Z,7.73
2017-12-23T17:16:54.140Z,7.33
2017-12-23T17:19:59.158Z,7.03
2017-12-23T17:23:04.237Z,7.73
2017-12-23T17:26:09.134Z,7.40
2017-12-23T17:29:35.882Z,8.27
2017-12-23T17:32:40.772Z,7.20
2017-12-23T17:35:45.789Z,8.23
2017-12-23T17:38:51.364Z,8.83
2017-12-23T17:41:56.554Z,7.50
2017-12-23T17:45:02.114Z,7.47
2017-12-23T17:48:07.260Z,7.80
2017-12-23T17:51:12.474Z,7.60
2017-12-23T17:54:17.694Z,8.10
2017-12-23T17:57:23.335Z,7.90
2017-12-23T18:00:28.343Z,8.10
2017-12-23T18:03:35.558Z,7.67
2017-12-23T18:06:41.699Z,7.20
2017-12-23T18:09:46.598Z,6.77
2017-12-23T18:12:51.765Z,5.80
2017-12-23T18:15:56.929Z,5.90
2017-12-23T18:19:02.482Z,6.87
2017-12-23T18:22:07.961Z,6.57
2017-12-23T18:25:12.965Z,7.13
2017-12-23T18:28:17.994Z,7.30
2017-12-23T18:31:23.037Z,6.50
2017-12-23T18:34:28.075Z,7.27
2017-12-23T18:37:33.590Z,6.00
2017-12-23T18:40:39.027Z,7.13
2017-12-23T18:43:44.534Z,6.07
2017-12-23T18:46:49.827Z,6.23
2017-12-23T18:49:56.055Z,6.40
2017-12-23T18:53:01.435Z,5.50
2017-12-23T18:56:06.111Z,6.83
2017-12-23T18:59:11.161Z,5.60
2017-12-23T19:02:17.190Z,4.23
2017-12-23T19:05:22.314Z,5.63
2017-12-23T19:08:29.117Z,5.07
2017-12-23T19:11:34.893Z,4.53
2017-12-23T19:14:40.596Z,4.50
2017-12-23T19:17:46.038Z,4.40
2017-12-23T19:20:53.338Z,4.30
2017-12-23T19:23:58.709Z,4.57
2017-12-23T19:27:04.958Z,4.63
2017-12-23T19:30:10.997Z,4.47
2017-12-23T19:33:16.958Z,4.47
2017-12-23T19:36:22.518Z,4.20
2017-12-23T19:39:29.490Z,4.17
2017-12-23T19:42:35.106Z,3.33
2017-12-23T19:45:40.526Z,3.37
2017-12-23T19:48:45.986Z,4.00
2017-12-23T19:51:51.485Z,3.40
2017-12-23T19:54:56.878Z,3.40
2017-12-23T19:58:02.694Z,3.33
2017-12-23T20:01:07.732Z,3.40
2017-12-23T20:04:13.299Z,4.67
2017-12-23T20:07:18.514Z,3.27
2017-12-23T20:10:23.953Z,3.40
2017-12-23T20:13:29.236Z,3.67
2017-12-23T20:16:34.282Z,3.90
2017-12-23T20:19:39.811Z,3.20
2017-12-23T20:22:44.796Z,3.73
2017-12-23T20:25:49.915Z,3.37
2017-12-23T20:28:56.115Z,4.23
2017-12-23T20:32:04.027Z,3.90
2017-12-23T20:35:09.574Z,3.50
2017-12-23T20:38:15.242Z,3.53
2017-12-23T20:41:21.618Z,3.67
2017-12-23T20:44:26.988Z,4.50
2017-12-23T20:47:33.451Z,4.07
2017-12-23T20:50:39.198Z,4.00
2017-12-23T20:53:44.070Z,3.90
2017-12-23T20:56:49.542Z,4.03
2017-12-23T20:59:54.603Z,4.00
2017-12-23T21:03:00.467Z,3.80
2017-12-23T21:06:05.402Z,3.70
2017-12-23T21:09:11.906Z,4.20
2017-12-23T21:12:17.088Z,3.27
2017-12-23T21:15:22.958Z,3.67
2017-12-23T21:18:28.429Z,3.60
2017-12-23T21:21:34.738Z,4.20
2017-12-23T21:24:40.350Z,4.30
2017-12-23T21:27:46.242Z,3.77
2017-12-23T21:30:51.143Z,4.03
2017-12-23T21:33:57.555Z,4.30
2017-12-23T21:37:03.847Z,4.20
2017-12-23T21:40:09.619Z,4.60
2017-12-23T21:43:16.107Z,3.90
2017-12-23T21:46:21.305Z,4.50
2017-12-23T21:49:27.502Z,4.80
2017-12-23T21:52:32.725Z,4.50
2017-12-23T21:55:37.707Z,4.00
2017-12-23T21:58:43.617Z,3.93
2017-12-23T22:01:49.918Z,3.43
2017-12-23T22:04:55.930Z,3.80
2017-12-23T22:08:00.843Z,4.00
2017-12-23T22:11:09.538Z,3.83
2017-12-23T22:14:15.638Z,4.40
2017-12-23T22:17:29.286Z,3.50
2017-12-23T22:20:34.374Z,4.40
2017-12-23T22:23:39.390Z,3.70
2017-12-23T22:26:44.785Z,3.90
2017-12-23T22:29:50.258Z,3.17
2017-12-23T22:32:55.194Z,4.00
2017-12-23T22:36:00.165Z,3.90
2017-12-23T22:39:05.821Z,3.90
2017-12-23T22:42:11.393Z,3.73
2017-12-23T22:45:16.676Z,4.17
2017-12-23T22:48:21.703Z,4.00
2017-12-23T22:51:27.238Z,4.37
2017-12-23T22:54:33.151Z,4.80
2017-12-23T22:57:38.898Z,4.43
2017-12-23T23:00:44.143Z,5.80
2017-12-23T23:03:49.185Z,4.53
2017-12-23T23:06:55.707Z,5.43
2017-12-23T23:10:00.547Z,4.47
2017-12-23T23:13:06.179Z,4.80
2017-12-23T23:16:11.188Z,5.57
2017-12-23T23:19:16.141Z,5.33
2017-12-23T23:22:21.886Z,5.43
2017-12-23T23:25:27.356Z,5.00
2017-12-23T23:28:32.241Z,5.33
2017-12-23T23:31:37.403Z,5.60
2017-12-23T23:34:42.350Z,5.73
2017-12-23T23:37:47.442Z,4.87
2017-12-23T23:40:52.920Z,5.80
2017-12-23T23:43:58.631Z,5.50
2017-12-23T23:47:04.436Z,5.40
2017-12-23T23:50:09.488Z,5.80
2017-12-23T23:53:15.258Z,4.97
2017-12-23T23:56:20.350Z,5.13
2017-12-23T23:59:26.355Z,5.70
